Wild Lotus — 3FUT8 — position and weather

sailwx.info

Track history (hours):
 
Tides and Currents Weather Stations Pressure Air Temp Water Temp Dewpoint Dewpoint Depression Visibility Wind Speed Wind Dir Waves Ship Positions

Wild Lotus

Last reported at 2018-Apr-15 08:15 UTC. Time now 2018-Apr-20 06:49 UTC.
Position N 38°24' W 010°12'.

; draft 8 m.

Type: Ship (hazmat cat A). MMSI: 352408000.

Date/timePositionNaut miles runAvg speedWind from/ knotsBaromVisibWave heightAir tempDewpointWater temp
2018-Apr-15 08:15N 38°24' W 010°12'1218.5
2018-Apr-15 07:35N 38°36' W 010°12'218.6
2018-Apr-15 07:30N 38°38' W 010°12'1018.7
2018-Apr-15 06:58N 38°48' W 010°12'919.0
2018-Apr-15 06:30N 38°56' W 010°12'918.6
2018-Apr-15 06:00N 39°06' W 010°12'918.4
2018-Apr-15 05:30N 39°15' W 010°11'57717.1
2018-Apr-13 19:43N 48°25' W 006°12'13417.1
2018-Apr-13 11:52N 49°47' W 003°30'719.3
2018-Apr-13 11:30N 49°51' W 003°21'1019.4
2018-Apr-13 11:00N 49°56' W 003°08'1919.1
2018-Apr-13 10:00N 50°03' W 002°40'2718.0
2018-Apr-13 08:31N 50°10' W 002°00'018.0
2018-Apr-13 08:30N 50°10' W 001°60'816.5
2018-Apr-13 08:00N 50°12' W 001°47'816.1
2018-Apr-13 07:30N 50°15' W 001°35'815.6
2018-Apr-13 07:01N 50°17' W 001°24'4015.9
2018-Apr-13 04:28N 50°28' W 000°23'817.7
2018-Apr-13 04:00N 50°30' W 000°11'918.3
2018-Apr-13 03:30N 50°33' E 000°03'918.7
2018-Apr-13 03:00N 50°35' E 000°18'918.9
2018-Apr-13 02:30N 50°38' E 000°32'918.8
2018-Apr-13 02:00N 50°42' E 000°45'918.5
2018-Apr-13 01:30N 50°47' E 000°58'2217.3
2018-Apr-13 00:14N 51°00' E 001°25'716.3
2018-Apr-12 23:48N 51°05' E 001°33'515.6
2018-Apr-12 23:30N 51°09' E 001°38'815.8
2018-Apr-12 23:00N 51°15' E 001°46'816.3
2018-Apr-12 22:30N 51°22' E 001°52'816.9
2018-Apr-12 22:01N 51°29' E 001°59'917.7
2018-Apr-12 21:30N 51°36' E 002°08'917.9
2018-Apr-12 21:00N 51°43' E 002°18'20117.8
2018-Apr-12 09:43N 54°38' E 005°02'417.8
2018-Apr-12 09:30N 54°41' E 005°05'917.7
2018-Apr-12 08:59N 54°49' E 005°14'917.7
2018-Apr-12 08:29N 54°57' E 005°23'817.6
2018-Apr-12 08:00N 55°03' E 005°31'19517.6
2018-Apr-11 20:52N 57°36' E 009°11'1318.5
2018-Apr-11 20:10N 57°42' E 009°33'1519.1
2018-Apr-11 19:23N 57°48' E 009°58'1118.8
2018-Apr-11 18:49N 57°50' E 010°18'619.1
2018-Apr-11 18:30N 57°50' E 010°29'919.0
2018-Apr-11 18:00N 57°50' E 010°47'918.2
2018-Apr-11 17:30N 57°51' E 011°04'815.6
2018-Apr-11 17:00N 57°52' E 011°18'611.9
2018-Apr-11 16:30N 57°52' E 011°29'611.5
2018-Apr-11 16:00N 57°55' E 011°39'612.6
2018-Apr-11 15:30N 58°00' E 011°46'611.2
2018-Apr-11 15:00N 58°06' E 011°48'5 9.7
2018-Apr-11 14:31N 58°10' E 011°51'712.0
2018-Apr-11 13:55N 58°17' E 011°48'  
2018-Apr-09 08:04N 58°21' E 011°54'0 0.0
2018-Apr-09 07:25N 58°21' E 011°54'0 0.0
2018-Apr-09 04:52N 58°21' E 011°54'0 0.0
2018-Apr-09 02:52N 58°21' E 011°54'  
2018-Apr-06 19:16N 58°21' E 011°54'0 0.0
2018-Apr-06 19:00N 58°21' E 011°54'2 3.8
2018-Apr-06 18:26N 58°20' E 011°51'5 8.9
2018-Apr-06 17:51N 58°14' E 011°51'412.6
2018-Apr-06 17:30N 58°10' E 011°51'5 9.3
2018-Apr-06 17:00N 58°06' E 011°48'5 9.7
2018-Apr-06 16:30N 58°01' E 011°47'612.8
2018-Apr-06 16:00N 57°56' E 011°40'612.1
2018-Apr-06 15:30N 57°53' E 011°30'611.8
2018-Apr-06 15:00N 57°48' E 011°25'815.2
2018-Apr-06 14:30N 57°40' E 011°24'917.2
2018-Apr-06 14:00N 57°32' E 011°28'918.3
2018-Apr-06 13:30N 57°23' E 011°33'918.4
2018-Apr-06 13:00N 57°14' E 011°38'918.8
2018-Apr-06 12:30N 57°05' E 011°44'918.8
2018-Apr-06 12:00N 56°56' E 011°49'4917.1
2018-Apr-06 09:07N 56°11' E 012°25'216.1
2018-Apr-06 08:59N 56°10' E 012°28'713.6
2018-Apr-06 08:31N 56°05' E 012°36'5 9.9
2018-Apr-06 08:01N 56°01' E 012°41'5 9.9
2018-Apr-06 07:30N 55°56' E 012°43'612.1
2018-Apr-06 07:00N 55°50' E 012°43'713.7
2018-Apr-06 06:30N 55°43' E 012°41'611.3
2018-Apr-06 06:00N 55°38' E 012°42'5 9.8
2018-Apr-06 05:30N 55°33' E 012°42'5 9.9
2018-Apr-06 05:00N 55°28' E 012°42'714.1
2018-Apr-06 04:30N 55°21' E 012°41'611.2
2018-Apr-06 04:00N 55°17' E 012°48'714.0
2018-Apr-06 03:30N 55°16' E 013°00'816.9
2018-Apr-06 03:00N 55°15' E 013°15'917.1
2018-Apr-06 02:29N 55°14' E 013°30'2017.1
2018-Apr-06 01:18N 55°13' E 014°06'517.1
2018-Apr-06 01:00N 55°14' E 014°15'816.9
2018-Apr-06 00:30N 55°19' E 014°26'917.4
2018-Apr-06 00:01N 55°26' E 014°36'917.7
2018-Apr-05 23:30N 55°30' E 014°49'917.3
2018-Apr-05 23:00N 55°35' E 015°02'917.4
2018-Apr-05 22:30N 55°39' E 015°16'917.6
2018-Apr-05 22:00N 55°44' E 015°29'917.6
2018-Apr-05 21:31N 55°48' E 015°43'917.5
2018-Apr-05 21:00N 55°52' E 015°56'917.7
2018-Apr-05 20:30N 55°57' E 016°10'917.7
2018-Apr-05 20:00N 56°01' E 016°24'917.7
2018-Apr-05 19:30N 56°06' E 016°37'917.7
2018-Apr-05 19:00N 56°11' E 016°50'917.7
2018-Apr-05 18:30N 56°17' E 017°02'  
Track history (hours):
 
Tides and Currents Weather Stations Pressure Air Temp Water Temp Dewpoint Dewpoint Depression Visibility Wind Speed Wind Dir Waves Ship Positions

Wild Lotus

Last reported at 2018-Apr-15 08:15 UTC. Time now 2018-Apr-20 06:49 UTC.
Position N 38°24' W 010°12'.

; draft 8 m.

Type: Ship (hazmat cat A). MMSI: 352408000.

Date/timePositionNaut miles runAvg speedWind from/ knotsBaromVisibWave heightAir tempDewpointWater temp
2018-Apr-15 08:15N 38°24' W 010°12'1218.5
2018-Apr-15 07:35N 38°36' W 010°12'218.6
2018-Apr-15 07:30N 38°38' W 010°12'1018.7
2018-Apr-15 06:58N 38°48' W 010°12'919.0
2018-Apr-15 06:30N 38°56' W 010°12'918.6
2018-Apr-15 06:00N 39°06' W 010°12'918.4
2018-Apr-15 05:30N 39°15' W 010°11'57717.1
2018-Apr-13 19:43N 48°25' W 006°12'13417.1
2018-Apr-13 11:52N 49°47' W 003°30'719.3
2018-Apr-13 11:30N 49°51' W 003°21'1019.4
2018-Apr-13 11:00N 49°56' W 003°08'1919.1
2018-Apr-13 10:00N 50°03' W 002°40'2718.0
2018-Apr-13 08:31N 50°10' W 002°00'018.0
2018-Apr-13 08:30N 50°10' W 001°60'816.5
2018-Apr-13 08:00N 50°12' W 001°47'816.1
2018-Apr-13 07:30N 50°15' W 001°35'815.6
2018-Apr-13 07:01N 50°17' W 001°24'4015.9
2018-Apr-13 04:28N 50°28' W 000°23'817.7
2018-Apr-13 04:00N 50°30' W 000°11'918.3
2018-Apr-13 03:30N 50°33' E 000°03'918.7
2018-Apr-13 03:00N 50°35' E 000°18'918.9
2018-Apr-13 02:30N 50°38' E 000°32'918.8
2018-Apr-13 02:00N 50°42' E 000°45'918.5
2018-Apr-13 01:30N 50°47' E 000°58'2217.3
2018-Apr-13 00:14N 51°00' E 001°25'716.3
2018-Apr-12 23:48N 51°05' E 001°33'515.6
2018-Apr-12 23:30N 51°09' E 001°38'815.8
2018-Apr-12 23:00N 51°15' E 001°46'816.3
2018-Apr-12 22:30N 51°22' E 001°52'816.9
2018-Apr-12 22:01N 51°29' E 001°59'917.7
2018-Apr-12 21:30N 51°36' E 002°08'917.9
2018-Apr-12 21:00N 51°43' E 002°18'20117.8
2018-Apr-12 09:43N 54°38' E 005°02'417.8
2018-Apr-12 09:30N 54°41' E 005°05'917.7
2018-Apr-12 08:59N 54°49' E 005°14'917.7
2018-Apr-12 08:29N 54°57' E 005°23'817.6
2018-Apr-12 08:00N 55°03' E 005°31'19517.6
2018-Apr-11 20:52N 57°36' E 009°11'1318.5
2018-Apr-11 20:10N 57°42' E 009°33'1519.1
2018-Apr-11 19:23N 57°48' E 009°58'1118.8
2018-Apr-11 18:49N 57°50' E 010°18'619.1
2018-Apr-11 18:30N 57°50' E 010°29'919.0
2018-Apr-11 18:00N 57°50' E 010°47'918.2
2018-Apr-11 17:30N 57°51' E 011°04'815.6
2018-Apr-11 17:00N 57°52' E 011°18'611.9
2018-Apr-11 16:30N 57°52' E 011°29'611.5
2018-Apr-11 16:00N 57°55' E 011°39'612.6
2018-Apr-11 15:30N 58°00' E 011°46'611.2
2018-Apr-11 15:00N 58°06' E 011°48'5 9.7
2018-Apr-11 14:31N 58°10' E 011°51'712.0
2018-Apr-11 13:55N 58°17' E 011°48'  
2018-Apr-09 08:04N 58°21' E 011°54'0 0.0
2018-Apr-09 07:25N 58°21' E 011°54'0 0.0
2018-Apr-09 04:52N 58°21' E 011°54'0 0.0
2018-Apr-09 02:52N 58°21' E 011°54'  
2018-Apr-06 19:16N 58°21' E 011°54'0 0.0
2018-Apr-06 19:00N 58°21' E 011°54'2 3.8
2018-Apr-06 18:26N 58°20' E 011°51'5 8.9
2018-Apr-06 17:51N 58°14' E 011°51'412.6
2018-Apr-06 17:30N 58°10' E 011°51'5 9.3
2018-Apr-06 17:00N 58°06' E 011°48'5 9.7
2018-Apr-06 16:30N 58°01' E 011°47'612.8
2018-Apr-06 16:00N 57°56' E 011°40'612.1
2018-Apr-06 15:30N 57°53' E 011°30'611.8
2018-Apr-06 15:00N 57°48' E 011°25'815.2
2018-Apr-06 14:30N 57°40' E 011°24'917.2
2018-Apr-06 14:00N 57°32' E 011°28'918.3
2018-Apr-06 13:30N 57°23' E 011°33'918.4
2018-Apr-06 13:00N 57°14' E 011°38'918.8
2018-Apr-06 12:30N 57°05' E 011°44'918.8
2018-Apr-06 12:00N 56°56' E 011°49'4917.1
2018-Apr-06 09:07N 56°11' E 012°25'216.1
2018-Apr-06 08:59N 56°10' E 012°28'713.6
2018-Apr-06 08:31N 56°05' E 012°36'5 9.9
2018-Apr-06 08:01N 56°01' E 012°41'5 9.9
2018-Apr-06 07:30N 55°56' E 012°43'612.1
2018-Apr-06 07:00N 55°50' E 012°43'713.7
2018-Apr-06 06:30N 55°43' E 012°41'611.3
2018-Apr-06 06:00N 55°38' E 012°42'5 9.8
2018-Apr-06 05:30N 55°33' E 012°42'5 9.9
2018-Apr-06 05:00N 55°28' E 012°42'714.1
2018-Apr-06 04:30N 55°21' E 012°41'611.2
2018-Apr-06 04:00N 55°17' E 012°48'714.0
2018-Apr-06 03:30N 55°16' E 013°00'816.9
2018-Apr-06 03:00N 55°15' E 013°15'917.1
2018-Apr-06 02:29N 55°14' E 013°30'2017.1
2018-Apr-06 01:18N 55°13' E 014°06'517.1
2018-Apr-06 01:00N 55°14' E 014°15'816.9
2018-Apr-06 00:30N 55°19' E 014°26'917.4
2018-Apr-06 00:01N 55°26' E 014°36'917.7
2018-Apr-05 23:30N 55°30' E 014°49'917.3
2018-Apr-05 23:00N 55°35' E 015°02'917.4
2018-Apr-05 22:30N 55°39' E 015°16'917.6
2018-Apr-05 22:00N 55°44' E 015°29'917.6
2018-Apr-05 21:31N 55°48' E 015°43'917.5
2018-Apr-05 21:00N 55°52' E 015°56'917.7
2018-Apr-05 20:30N 55°57' E 016°10'917.7
2018-Apr-05 20:00N 56°01' E 016°24'917.7
2018-Apr-05 19:30N 56°06' E 016°37'917.7
2018-Apr-05 19:00N 56°11' E 016°50'917.7
2018-Apr-05 18:30N 56°17' E 017°02'  

Dump ship's entire track history